Skip to main content

NOAA/GLERL Met Station at Muskegon, MI

Previous 3 Hours (2 minute increments)
See also Previous 5 Days (top of hour)
Jump down to Data
Switch to [English][Metric]
Zoom: Click and drag, Pan: shift-click and drag, Unzoom: double-click, Unzoom All






See also 1-day windrose plot


NOAA/GLERL Met Station at Muskegon, MI

Previous 3 Hours (2 minute increments)
See also Previous 5 Days (top of hour only)
Jump up to Graphs
Switch to [English][Metric]
                  Wind  Wind  Wind   Air   Dew   Rel     Sta   PAR
                   Spd   Gst   Dir  Temp    Pt   Hum    Pres uE/m2/
YYYY-MM-DD   EDT   kts   kts   deg     F     F     %   in Hg   sec
2017-03-23 12:20   8.2  11.7   150  36.1  13.7  39.3   29.78   753
2017-03-23 12:18   7.8  10.3   147  36.0  13.4  39.1   29.78   796
2017-03-23 12:16   8.4  10.9   154  35.6  13.7  40.2   29.78   815
2017-03-23 12:14   8.6  11.1   131  35.6  13.7  40.3   29.78   826
2017-03-23 12:12   8.4  11.5   134  35.4  13.7  40.5   29.78   830
2017-03-23 12:10   9.3  13.6   136  35.6  14.0  40.7   29.78   830
2017-03-23 12:08  10.3  12.2   136  35.6  14.3  41.2   29.78   865
2017-03-23 12:06   9.1  11.9   131  35.2  14.4  42.1   29.78   948
2017-03-23 12:04   9.7  12.2   129  35.1  14.3  42.2   29.78  1062
2017-03-23 12:02   8.7  10.9   126  35.2  14.2  41.6   29.78  1180
2017-03-23 12:00   8.9  10.9   126  35.4  13.9  40.9   29.78  1185
2017-03-23 11:58   8.7  12.4   133  35.2  13.4  40.2   29.78  1096
2017-03-23 11:56   9.5  11.3   141  35.2  13.5  40.5   29.78  1005
2017-03-23 11:54  10.3  12.4   138  35.2  13.9  41.2   29.78   941
2017-03-23 11:52   8.4  12.2   133  34.9  13.7  41.4   29.78   905
2017-03-23 11:50  10.7  12.2   137  34.7  13.5  41.3   29.78   859
2017-03-23 11:48  10.7  12.4   138  34.9  13.7  41.4   29.79   817
2017-03-23 11:46   8.9  11.1   136  35.1  13.8  41.2   29.79   777
2017-03-23 11:44   8.2  11.1   136  35.4  13.7  40.5   29.79   722
2017-03-23 11:42   6.0   9.7   152  35.6  13.7  40.3   29.80   708
2017-03-23 11:40   6.2   8.9   165  35.2  13.6  40.6   29.80   716
2017-03-23 11:38   7.2  11.7   156  35.1  13.3  40.3   29.80   697
2017-03-23 11:36  10.5  13.4   146  35.4  14.0  41.0   29.80   701
2017-03-23 11:34   5.2   8.9   147  35.2  14.1  41.5   29.80   780
2017-03-23 11:32   7.0   8.7   149  35.1  14.0  41.6   29.80   882
2017-03-23 11:30   6.2   9.7   152  34.7  13.7  41.7   29.80   891
2017-03-23 11:28   8.9  11.1   141  34.7  13.8  41.9   29.80   874
2017-03-23 11:26   7.8   9.7   146  34.7  14.0  42.3   29.80   899
2017-03-23 11:24   6.0   9.7   157  34.3  13.7  42.2   29.80   931
2017-03-23 11:22   8.9  11.1   152  34.2  13.9  43.0   29.80   916
2017-03-23 11:20   8.9  10.7   139  33.8  13.7  43.3   29.80   853
2017-03-23 11:18  10.1  12.2   128  34.2  14.0  43.1   29.80   792
2017-03-23 11:16   6.8  11.1   135  34.2  14.0  43.1   29.80   732
2017-03-23 11:14   8.4  12.4   144  34.5  14.4  43.3   29.81   681
2017-03-23 11:12   5.6   8.6   155  34.5  14.6  43.6   29.81   658
2017-03-23 11:10   4.9   7.6   149  34.0  14.2  43.8   29.81   665
2017-03-23 11:08   7.2  12.2   148  33.6  13.8  43.8   29.81   669
2017-03-23 11:06  10.1  12.6   144  33.4  13.5  43.5   29.80   651
2017-03-23 11:04   8.0  12.1   138  33.6  13.7  43.5   29.81   636
2017-03-23 11:02   8.6  11.9   142  33.8  14.2  44.1   29.81   654
2017-03-23 11:00   6.0   9.3   144  33.8  14.0  43.8   29.81   704
2017-03-23 10:58   7.8  11.7   157  33.4  13.3  43.0   29.81   760
2017-03-23 10:56   8.2  12.6   157  33.8  13.5  42.8   29.81   800
2017-03-23 10:54   8.4  12.2   161  34.0  14.2  43.9   29.81   834
2017-03-23 10:52   5.1   8.9   144  33.8  14.1  44.0   29.81   867
2017-03-23 10:50   7.8  10.3   152  33.6  14.2  44.5   29.81   907
2017-03-23 10:48   8.2  10.5   150  33.4  14.4  45.2   29.81   980
2017-03-23 10:46   7.6   9.1   167  33.3  14.3  45.3   29.81   934
2017-03-23 10:44   7.2   8.7   165  33.4  14.4  45.2   29.82   907
2017-03-23 10:42   5.8   7.6   148  33.3  14.4  45.6   29.82   886
2017-03-23 10:40   6.2   8.0   157  33.1  14.4  45.9   29.82   826
2017-03-23 10:38   5.2   9.1   162  32.9  14.6  46.6   29.82   750
2017-03-23 10:36   6.2   9.7   168  32.5  14.1  46.2   29.82   671
2017-03-23 10:34   7.4   9.9   151  32.9  14.3  45.9   29.83   632
2017-03-23 10:32   5.4   8.2   155  32.9  14.8  46.9   29.83   617
2017-03-23 10:30   4.9   7.2   154  32.7  14.9  47.5   29.83   601
2017-03-23 10:28   3.9   5.4   151  32.5  14.9  47.9   29.83   595
2017-03-23 10:26   4.9   6.6   158  32.5  14.7  47.5   29.83   594
2017-03-23 10:24   6.4   8.6   173  32.5  14.9  47.8   29.83   613
2017-03-23 10:22   5.6   8.2   168  32.4  14.7  47.8   29.82   629
2017-03-23 10:20   8.7  10.7   170  32.2  14.8  48.3   29.83   627
2017-03-23 10:18   6.6  10.1   158  32.0  14.8  48.7   29.83   625
2017-03-23 10:16   5.8   7.4   147  31.8  14.5  48.5   29.83   639
2017-03-23 10:14   7.8  11.1   147  32.2  14.8  48.4   29.83   689
2017-03-23 10:12   5.6   8.4   147  32.0  14.8  48.8   29.82   758
2017-03-23 10:10   8.0  10.5   157  31.8  14.8  49.1   29.82   793
2017-03-23 10:08   6.4   8.4   146  31.6  14.6  49.0   29.82   773
2017-03-23 10:06   7.4  11.5   146  31.8  14.9  49.3   29.82   708
2017-03-23 10:04   6.2   7.6   151  31.6  14.9  49.6   29.82   649
2017-03-23 10:02   7.8   9.9   157  31.5  14.7  49.6   29.82   617
2017-03-23 10:00   8.7  12.1   150  31.5  14.9  50.1   29.83   588
2017-03-23 09:58   7.0   9.3   145  31.5  15.3  50.8   29.83   638
2017-03-23 09:56   5.6   7.0   156  31.1  14.9  50.8   29.83   558
2017-03-23 09:54   8.4  11.7   165  31.1  14.8  50.5   29.83   534
2017-03-23 09:52   7.8   9.3   157  31.3  14.8  50.2   29.83   502
2017-03-23 09:50   6.8  10.3   160  31.5  15.3  50.9   29.83   509
2017-03-23 09:48   5.8   9.7   159  31.3  15.1  50.8   29.83   521
2017-03-23 09:46   8.2  11.5   166  31.5  15.4  51.1   29.83   610
2017-03-23 09:44   7.4   9.1   174  31.5  15.4  51.1   29.83  1166
2017-03-23 09:42   6.0   7.2   162  31.3  15.3  51.2   29.83  1454
2017-03-23 09:40   7.4   9.1   156  31.3  15.5  51.7   29.83  1416
2017-03-23 09:38   9.3  11.1   163  30.9  15.3  51.9   29.83  1652
2017-03-23 09:36  11.3  14.0   158  30.7  15.3  52.3   29.83  1645
2017-03-23 09:34   8.7  11.9   158  30.7  15.4  52.7   29.83  1498
2017-03-23 09:32   8.7  10.5   162  30.7  15.5  52.8   29.83  1158
2017-03-23 09:30   8.9  10.9   164  30.7  15.5  52.9   29.83  1409
2017-03-23 09:28   9.7  12.4   164  30.6  15.5  53.3   29.83  1495
2017-03-23 09:26   9.3  12.2   154  30.2  15.5  54.0   29.84  1498
2017-03-23 09:24   7.8  10.3   161  29.8  15.2  54.2   29.84  1463
2017-03-23 09:22   8.4  10.1   165  29.7  15.1  54.2   29.84  1262
2017-03-23 09:20  10.3  12.6   163  29.7  15.0  54.1   29.84  1302